Time;durP1;ratioP1;P1;durP2;ratioP2;P2;SDS_P1;SDS_P2;PMS_P1;PMS_P2;Temp;Humidity;BMP_temperature;BMP_pressure;BME280_temperature;BME280_humidity;BME280_pressure;Samples;Min_cycle;Max_cycle;Signal;HPM_P1;HPM_P2
2023/06/05 00:01:43;;;;;;;6.45;4.80;;;12.70;99.90;;;;;;5049247;28;20037;-56
2023/06/05 00:04:09;;;;;;;6.05;4.97;;;12.70;99.90;;;;;;5042421;28;20407;-57
2023/06/05 00:06:37;;;;;;;5.90;4.80;;;12.70;99.90;;;;;;5035746;28;20045;-56
2023/06/05 00:09:03;;;;;;;6.07;4.70;;;12.60;99.90;;;;;;5039835;28;20068;-56
2023/06/05 00:11:29;;;;;;;;;;;12.60;99.90;;;;;;5048447;28;20037;-57
2023/06/05 00:13:54;;;;;;;7.32;5.18;;;12.60;99.90;;;;;;5042217;28;20479;-57
2023/06/05 00:16:20;;;;;;;6.03;4.65;;;12.60;99.90;;;;;;5033396;28;20040;-57
2023/06/05 00:18:45;;;;;;;10.60;5.90;;;12.60;99.90;;;;;;5036354;28;20040;-54
2023/06/05 00:21:17;;;;;;;6.70;5.10;;;12.60;99.90;;;;;;5031242;28;20068;-54
2023/06/05 00:23:43;;;;;;;8.45;5.20;;;12.50;99.90;;;;;;5035761;28;20068;-58
2023/06/05 00:26:09;;;;;;;6.47;5.68;;;12.50;99.90;;;;;;5049136;28;20471;-56
2023/06/05 00:28:34;;;;;;;8.18;5.05;;;12.50;99.90;;;;;;5046159;28;20517;-57
2023/06/05 00:31:01;;;;;;;8.93;5.90;;;12.50;99.90;;;;;;5048061;28;20514;-54
2023/06/05 00:33:26;;;;;;;;;;;12.40;99.90;;;;;;5048364;28;20776;-57
2023/06/05 00:35:53;;;;;;;11.40;5.75;;;12.40;99.90;;;;;;5048647;28;19979;-56
2023/06/05 00:38:18;;;;;;;7.03;5.68;;;12.40;99.90;;;;;;5044786;28;20041;-55
2023/06/05 00:40:44;;;;;;;7.70;6.10;;;12.40;99.90;;;;;;5047933;28;20033;-57
2023/06/05 00:43:09;;;;;;;8.30;6.25;;;12.40;99.90;;;;;;5045333;28;20494;-58
2023/06/05 00:45:35;;;;;;;8.27;5.97;;;12.40;99.90;;;;;;5034045;28;20049;-57
2023/06/05 00:48:01;;;;;;;6.38;5.10;;;12.40;99.90;;;;;;5032110;28;20126;-57
2023/06/05 00:50:27;;;;;;;6.07;5.13;;;12.30;99.90;;;;;;5034312;28;20171;-56
2023/06/05 00:52:53;;;;;;;10.15;6.40;;;12.30;99.90;;;;;;5030541;28;20127;-55
2023/06/05 00:55:19;;;;;;;9.18;6.22;;;12.30;99.90;;;;;;5033100;28;20548;-57
2023/06/05 00:57:45;;;;;;;7.05;5.97;;;12.30;99.90;;;;;;5044450;28;20037;-56
2023/06/05 01:00:12;;;;;;;10.70;6.72;;;12.30;99.90;;;;;;5047286;28;20553;-57
2023/06/05 01:02:39;;;;;;;7.20;6.43;;;12.30;99.90;;;;;;5048717;28;20048;-57
2023/06/05 01:05:06;;;;;;;7.45;6.38;;;12.20;99.90;;;;;;5046272;28;20045;-56
2023/06/05 01:07:34;;;;;;;9.85;6.90;;;12.20;99.90;;;;;;5035486;28;20562;-57
2023/06/05 01:10:01;;;;;;;9.57;6.32;;;12.20;99.90;;;;;;5035775;28;20041;-56
2023/06/05 01:12:42;;;;;;;8.23;6.93;;;12.20;99.90;;;;;;5030378;28;20083;-55
2023/06/05 01:15:08;;;;;;;11.35;6.65;;;12.20;99.90;;;;;;5044429;28;20068;-55
2023/06/05 01:17:34;;;;;;;12.73;6.43;;;12.10;99.90;;;;;;5045376;28;20045;-57
2023/06/05 01:20:07;;;;;;;10.23;6.32;;;12.10;99.90;;;;;;5045699;28;20047;-57
2023/06/05 01:22:37;;;;;;;10.90;6.85;;;12.10;99.90;;;;;;5039435;28;20076;-57
2023/06/05 01:25:07;;;;;;;7.75;6.07;;;12.00;99.90;;;;;;5044709;28;20411;-56
2023/06/05 01:27:38;;;;;;;8.65;5.88;;;12.00;99.90;;;;;;5046014;28;20037;-57
2023/06/05 01:30:24;;;;;;;8.73;5.97;;;12.00;99.90;;;;;;5041794;28;20056;-56
2023/06/05 01:32:56;;;;;;;9.32;5.90;;;11.90;99.90;;;;;;5047258;28;20041;-56
2023/06/05 01:35:27;;;;;;;10.52;5.97;;;11.90;99.90;;;;;;5045193;28;20079;-56
2023/06/05 01:37:54;;;;;;;10.13;6.30;;;11.90;99.90;;;;;;5047992;28;20037;-57
2023/06/05 01:40:23;;;;;;;8.63;6.13;;;11.90;99.90;;;;;;5046033;28;20053;-56
2023/06/05 01:42:51;;;;;;;6.65;5.63;;;11.90;99.90;;;;;;5043902;28;20112;-56
2023/06/05 01:45:18;;;;;;;11.70;6.85;;;11.90;99.90;;;;;;5045062;28;20413;-57
2023/06/05 01:47:48;;;;;;;9.85;5.88;;;11.90;99.90;;;;;;5047607;28;20048;-57
2023/06/05 01:50:14;;;;;;;9.65;5.30;;;11.80;99.90;;;;;;5033007;28;20510;-56
2023/06/05 01:52:44;;;;;;;11.18;6.90;;;11.80;99.90;;;;;;5046326;28;20037;-56
2023/06/05 01:55:20;;;;;;;9.02;6.22;;;11.80;99.90;;;;;;5044473;28;20402;-57
2023/06/05 01:57:45;;;;;;;8.85;6.10;;;11.80;99.90;;;;;;5031354;28;20449;-58
2023/06/05 02:00:15;;;;;;;14.38;7.32;;;11.80;99.90;;;;;;5034411;28;20080;-55
2023/06/05 02:02:45;;;;;;;8.75;6.10;;;11.80;99.90;;;;;;5031143;28;20402;-57
2023/06/05 02:05:14;;;;;;;6.00;5.40;;;11.80;99.90;;;;;;5039737;28;20048;-56
2023/06/05 02:07:43;;;;;;;10.52;5.57;;;11.70;99.90;;;;;;5046963;28;20037;-57
2023/06/05 02:10:09;;;;;;;10.20;6.43;;;11.80;99.90;;;;;;5043230;28;20052;-56
2023/06/05 02:12:37;;;;;;;7.93;6.03;;;11.70;99.90;;;;;;5044626;28;20037;-55
2023/06/05 02:15:03;;;;;;;11.30;6.70;;;11.70;99.90;;;;;;5045639;28;20090;-57
2023/06/05 02:17:29;;;;;;;10.55;6.72;;;11.70;99.90;;;;;;5036713;28;20037;-56
2023/06/05 02:19:55;;;;;;;7.55;6.40;;;11.70;99.90;;;;;;5032259;28;20061;-57
2023/06/05 02:22:23;;;;;;;12.43;7.32;;;11.60;99.90;;;;;;5033347;28;20114;-54
2023/06/05 02:24:51;;;;;;;10.10;6.90;;;11.60;99.90;;;;;;5029973;28;20538;-56
2023/06/05 02:27:17;;;;;;;9.68;6.45;;;11.60;99.90;;;;;;5029511;28;20033;-56
2023/06/05 02:29:43;;;;;;;10.98;7.00;;;11.50;99.90;;;;;;5037467;28;20033;-57
2023/06/05 02:32:09;;;;;;;8.85;6.55;;;11.50;99.90;;;;;;5045756;28;20509;-56
2023/06/05 02:34:35;;;;;;;;;;;11.50;99.90;;;;;;5037920;28;20033;-56
2023/06/05 02:37:01;;;;;;;8.13;6.95;;;11.50;99.90;;;;;;5045637;28;19924;-57
2023/06/05 02:39:26;;;;;;;12.48;6.53;;;11.40;99.90;;;;;;5046252;28;20486;-57
2023/06/05 02:41:53;;;;;;;11.05;6.75;;;11.40;99.90;;;;;;5036204;28;20071;-57
2023/06/05 02:44:19;;;;;;;11.43;6.97;;;11.40;99.90;;;;;;5040357;28;20045;-57
2023/06/05 02:46:44;;;;;;;10.40;6.25;;;11.40;99.90;;;;;;5029470;28;20030;-57
2023/06/05 02:49:10;;;;;;;10.75;7.35;;;11.40;99.90;;;;;;5032482;28;20037;-56
2023/06/05 02:51:35;;;;;;;9.32;7.93;;;11.40;99.90;;;;;;5046677;28;20116;-54
2023/06/05 02:54:01;;;;;;;10.45;7.78;;;11.40;99.90;;;;;;5044261;28;20043;-55
2023/06/05 02:56:27;;;;;;;13.02;7.78;;;11.40;99.90;;;;;;5029738;28;20060;-58
2023/06/05 02:58:53;;;;;;;11.15;7.32;;;11.30;99.90;;;;;;5027775;28;20037;-55
2023/06/05 03:01:21;;;;;;;13.25;7.97;;;11.30;99.90;;;;;;5033959;28;20072;-55
2023/06/05 03:03:48;;;;;;;10.00;7.65;;;11.20;99.90;;;;;;5037103;28;20518;-58
2023/06/05 03:06:17;;;;;;;9.38;6.47;;;11.20;99.90;;;;;;5037111;28;20056;-54
2023/06/05 03:08:43;;;;;;;10.88;7.15;;;11.20;99.90;;;;;;5032392;28;20041;-54
2023/06/05 03:11:09;;;;;;;;;;;11.20;99.90;;;;;;5040112;28;20037;-57
2023/06/05 03:13:35;;;;;;;11.73;8.07;;;11.20;99.90;;;;;;5033451;28;19917;-54
2023/06/05 03:16:03;;;;;;;10.82;7.88;;;11.20;99.90;;;;;;5038853;28;20104;-57
2023/06/05 03:18:29;;;;;;;12.32;8.52;;;11.10;99.90;;;;;;5031988;28;20640;-56
2023/06/05 03:20:56;;;;;;;11.18;7.72;;;11.10;99.90;;;;;;5039351;28;20045;-57
2023/06/05 03:23:27;;;;;;;16.83;7.88;;;11.10;99.90;;;;;;5047792;28;20076;-57
2023/06/05 03:25:53;;;;;;;11.98;6.88;;;11.10;99.90;;;;;;5045861;28;20075;-55
2023/06/05 03:28:20;;;;;;;9.70;7.25;;;11.10;99.90;;;;;;5048178;28;20037;-56
2023/06/05 03:30:46;;;;;;;11.52;7.95;;;11.00;99.90;;;;;;5044594;28;20051;-55
2023/06/05 03:33:13;;;;;;;14.95;8.55;;;11.00;99.90;;;;;;5031830;28;20116;-56
2023/06/05 03:35:40;;;;;;;9.18;8.27;;;11.00;99.90;;;;;;5032905;28;20047;-58
2023/06/05 03:38:05;;;;;;;12.52;8.02;;;11.00;99.90;;;;;;5032233;28;20048;-57
2023/06/05 03:40:31;;;;;;;13.93;8.07;;;11.00;99.90;;;;;;5036945;28;20041;-58
2023/06/05 03:42:57;;;;;;;12.82;8.00;;;11.00;99.90;;;;;;5041527;28;20034;-58
2023/06/05 03:45:26;;;;;;;12.68;7.78;;;11.00;99.90;;;;;;5035492;28;20044;-57
2023/06/05 03:47:53;;;;;;;15.90;7.88;;;11.00;99.90;;;;;;5034707;28;20037;-58
2023/06/05 03:50:20;;;;;;;8.88;7.22;;;11.00;99.90;;;;;;5039588;28;20029;-57
2023/06/05 03:52:52;;;;;;;10.50;8.13;;;11.00;99.90;;;;;;5036730;28;20037;-55
2023/06/05 03:55:19;;;;;;;12.88;7.35;;;11.00;99.90;;;;;;5047038;28;20049;-56
2023/06/05 03:57:47;;;;;;;7.88;6.63;;;11.00;99.90;;;;;;5043707;28;20041;-57
2023/06/05 04:00:14;;;;;;;13.18;7.28;;;10.90;99.90;;;;;;5032082;28;20565;-56
2023/06/05 04:02:40;;;;;;;14.05;7.30;;;10.90;99.90;;;;;;5041363;28;20045;-58
2023/06/05 04:05:06;;;;;;;7.90;7.00;;;10.90;99.90;;;;;;5047440;28;20512;-55
2023/06/05 04:07:32;;;;;;;8.88;6.38;;;10.90;99.90;;;;;;5046310;28;20065;-57
2023/06/05 04:09:57;;;;;;;13.85;7.85;;;11.00;99.90;;;;;;5033024;28;20073;-57
2023/06/05 04:12:23;;;;;;;11.80;7.25;;;11.00;99.90;;;;;;5044207;28;20029;-58
2023/06/05 04:14:48;;;;;;;8.90;8.00;;;10.90;99.90;;;;;;5036944;28;20044;-57
2023/06/05 04:17:14;;;;;;;10.07;7.63;;;10.90;99.90;;;;;;5042100;28;20271;-56
2023/06/05 04:19:42;;;;;;;9.02;7.28;;;10.90;99.90;;;;;;5038824;28;20272;-57
2023/06/05 04:22:08;;;;;;;12.02;7.68;;;11.00;99.90;;;;;;5035452;28;20113;-56
2023/06/05 04:24:34;;;;;;;11.70;7.63;;;11.00;99.90;;;;;;5038970;28;20124;-54
2023/06/05 04:27:00;;;;;;;12.07;7.35;;;11.00;99.90;;;;;;5044843;28;20124;-57
2023/06/05 04:29:26;;;;;;;;;;;11.00;99.90;;;;;;5048304;28;20160;-55
2023/06/05 04:31:52;;;;;;;9.70;6.97;;;11.00;99.90;;;;;;5044683;28;20003;-56
2023/06/05 04:34:18;;;;;;;9.05;7.40;;;11.00;99.90;;;;;;5035031;28;20076;-55
2023/06/05 04:36:44;;;;;;;9.98;7.63;;;11.00;99.90;;;;;;5035817;28;20116;-58
2023/06/05 04:39:14;;;;;;;10.15;6.45;;;11.00;99.90;;;;;;5035587;28;20120;-56
2023/06/05 04:41:46;;;;;;;11.43;6.97;;;11.00;99.90;;;;;;5033887;28;20099;-55
2023/06/05 04:44:13;;;;;;;17.70;8.38;;;11.00;99.90;;;;;;5041033;28;20077;-57
2023/06/05 04:46:39;;;;;;;18.25;8.85;;;11.10;99.90;;;;;;5038408;28;20034;-57
2023/06/05 04:49:06;;;;;;;10.40;6.65;;;11.10;99.90;;;;;;5041155;28;20037;-57
2023/06/05 04:51:33;;;;;;;12.75;7.28;;;11.10;99.90;;;;;;5044157;28;20037;-56
2023/06/05 04:53:59;;;;;;;12.50;7.10;;;11.20;99.90;;;;;;5038577;28;20055;-55
2023/06/05 04:56:25;;;;;;;11.25;7.45;;;11.20;99.90;;;;;;5043836;28;20048;-57
2023/06/05 04:58:52;;;;;;;14.70;7.60;;;11.20;99.90;;;;;;5035855;28;20463;-57
2023/06/05 05:01:19;;;;;;;13.13;7.20;;;11.30;99.90;;;;;;5034409;28;20041;-58
2023/06/05 05:03:46;;;;;;;9.18;6.60;;;11.30;99.90;;;;;;5035708;28;20514;-54
2023/06/05 05:06:16;;;;;;;10.63;6.70;;;11.30;99.90;;;;;;5035011;28;20494;-58
2023/06/05 05:08:45;;;;;;;8.65;6.75;;;11.40;99.90;;;;;;5039739;28;20033;-57
2023/06/05 05:11:11;;;;;;;9.65;6.55;;;11.40;99.90;;;;;;5046004;28;20043;-58
2023/06/05 05:13:36;;;;;;;8.93;7.15;;;11.50;99.90;;;;;;5038109;28;20040;-54
2023/06/05 05:16:02;;;;;;;8.70;7.50;;;11.50;99.90;;;;;;5046977;28;20110;-56
2023/06/05 05:18:28;;;;;;;9.93;6.50;;;11.50;99.90;;;;;;5042715;28;20112;-57
2023/06/05 05:20:53;;;;;;;7.90;6.32;;;11.60;99.90;;;;;;5030101;28;20056;-58
2023/06/05 05:23:20;;;;;;;9.73;6.53;;;11.70;99.90;;;;;;5047509;28;20062;-57
2023/06/05 05:25:46;;;;;;;11.63;6.88;;;11.70;99.90;;;;;;5039766;28;20108;-56
2023/06/05 05:28:12;;;;;;;8.40;6.82;;;11.80;99.90;;;;;;5033062;28;20163;-55
2023/06/05 05:30:38;;;;;;;9.00;6.15;;;11.80;99.90;;;;;;5041875;28;20029;-58
2023/06/05 05:33:03;;;;;;;9.43;6.70;;;11.90;99.90;;;;;;5037432;28;20407;-57
2023/06/05 05:35:30;;;;;;;11.40;7.15;;;11.90;99.90;;;;;;5041701;28;20047;-58
2023/06/05 05:37:56;;;;;;;12.57;7.07;;;12.00;99.90;;;;;;5039240;28;20679;-59
2023/06/05 05:40:22;;;;;;;8.50;5.65;;;12.10;99.90;;;;;;5021812;28;20040;-54
2023/06/05 05:42:48;;;;;;;11.70;6.25;;;12.20;99.90;;;;;;5045075;28;20049;-57
2023/06/05 05:45:13;;;;;;;7.85;6.22;;;12.20;99.90;;;;;;5033583;28;20164;-57
2023/06/05 05:47:39;;;;;;;8.30;5.75;;;12.20;99.90;;;;;;5051578;28;20094;-57
2023/06/05 05:50:05;;;;;;;9.20;5.80;;;12.30;99.90;;;;;;5048115;28;20035;-58
2023/06/05 05:52:30;;;;;;;8.20;6.13;;;12.40;99.90;;;;;;5040516;28;20417;-56
2023/06/05 05:54:58;;;;;;;8.93;6.13;;;12.50;99.90;;;;;;5049271;28;20099;-58
2023/06/05 05:57:24;;;;;;;8.02;5.45;;;12.50;99.90;;;;;;5041909;28;20115;-57
2023/06/05 05:59:50;;;;;;;9.05;6.43;;;12.60;99.90;;;;;;5040540;28;20068;-58
2023/06/05 06:02:17;;;;;;;13.82;6.00;;;12.60;99.90;;;;;;5030399;28;20038;-58
2023/06/05 06:04:44;;;;;;;6.60;5.65;;;12.80;99.90;;;;;;5043621;28;20041;-57
2023/06/05 06:07:09;;;;;;;9.00;5.88;;;12.80;99.90;;;;;;5041938;28;20045;-57
2023/06/05 06:09:36;;;;;;;6.88;5.22;;;12.90;99.90;;;;;;5044396;28;20486;-55
2023/06/05 06:12:05;;;;;;;6.25;4.65;;;12.90;99.90;;;;;;5031965;28;20157;-56
2023/06/05 06:14:32;;;;;;;7.28;5.93;;;13.00;99.90;;;;;;5049438;28;20040;-57
2023/06/05 06:16:58;;;;;;;7.40;5.70;;;13.10;99.90;;;;;;5049917;28;20056;-56
2023/06/05 06:19:25;;;;;;;12.02;5.50;;;13.10;99.90;;;;;;5049785;28;20045;-57
2023/06/05 06:21:51;;;;;;;7.60;5.55;;;13.20;99.90;;;;;;5049500;28;20561;-56
2023/06/05 06:24:20;;;;;;;9.32;6.20;;;13.20;99.90;;;;;;5049793;28;20116;-58
2023/06/05 06:26:46;;;;;;;7.60;6.35;;;13.30;99.90;;;;;;5049922;28;20048;-58
2023/06/05 06:29:13;;;;;;;;;;;13.40;99.90;;;;;;5048269;28;20124;-58
2023/06/05 06:31:39;;;;;;;288.63;24.48;;;13.40;99.90;;;;;;5048157;28;19916;-57
2023/06/05 06:34:04;;;;;;;11.52;6.07;;;13.50;99.90;;;;;;5029637;28;20045;-56
2023/06/05 06:36:30;;;;;;;10.05;5.57;;;13.60;99.90;;;;;;5029038;28;20040;-57
2023/06/05 06:38:56;;;;;;;6.75;5.05;;;13.60;99.90;;;;;;5052581;28;20045;-58
2023/06/05 06:41:22;;;;;;;10.30;5.22;;;13.70;99.90;;;;;;5053184;28;20514;-57
2023/06/05 06:43:47;;;;;;;9.98;5.80;;;13.70;99.90;;;;;;5051861;28;20517;-56
2023/06/05 06:46:13;;;;;;;9.07;5.70;;;13.80;99.90;;;;;;5053327;28;20484;-58
2023/06/05 06:48:38;;;;;;;12.82;5.35;;;13.90;99.90;;;;;;5036509;28;20204;-58
2023/06/05 06:51:04;;;;;;;9.45;5.70;;;14.00;99.90;;;;;;5032848;28;20037;-60
2023/06/05 06:53:30;;;;;;;5.85;5.15;;;14.00;99.90;;;;;;5034584;28;20095;-57
2023/06/05 06:55:55;;;;;;;5.93;5.00;;;14.10;99.90;;;;;;5033281;28;20037;-56
2023/06/05 06:58:21;;;;;;;9.95;6.80;;;14.20;99.90;;;;;;5036991;28;20037;-55
2023/06/05 07:00:49;;;;;;;6.55;6.00;;;14.20;99.90;;;;;;5039521;28;20064;-59
2023/06/05 07:03:14;;;;;;;8.20;6.07;;;14.30;99.90;;;;;;5046322;28;20524;-58
2023/06/05 07:05:40;;;;;;;8.23;5.93;;;14.30;99.90;;;;;;5052578;28;20041;-55
2023/06/05 07:08:05;;;;;;;8.90;6.15;;;14.40;99.90;;;;;;5041302;28;20406;-57
2023/06/05 07:10:31;;;;;;;6.75;5.70;;;14.50;99.90;;;;;;5050153;28;20039;-57
2023/06/05 07:12:57;;;;;;;8.93;6.38;;;14.60;99.90;;;;;;5041596;28;20042;-58
2023/06/05 07:15:23;;;;;;;7.32;5.80;;;14.60;99.90;;;;;;5034449;28;20041;-58
2023/06/05 07:17:48;;;;;;;7.53;5.70;;;14.70;99.90;;;;;;5032457;28;20041;-58
2023/06/05 07:20:14;;;;;;;7.15;6.50;;;14.80;99.90;;;;;;5033928;28;20550;-58
2023/06/05 07:22:46;;;;;;;8.98;6.15;;;14.80;99.90;;;;;;5050795;28;20045;-58
2023/06/05 07:25:14;;;;;;;6.35;5.32;;;14.90;99.90;;;;;;5035164;28;20146;-58
2023/06/05 07:27:40;;;;;;;8.38;5.55;;;14.90;99.90;;;;;;5052184;28;20041;-58
2023/06/05 07:30:07;;;;;;;9.77;5.93;;;15.00;99.90;;;;;;5035857;28;20056;-56
2023/06/05 07:32:32;;;;;;;5.95;5.30;;;15.00;99.90;;;;;;5014977;28;20052;-58
2023/06/05 07:34:58;;;;;;;7.78;6.10;;;15.20;99.90;;;;;;5030504;28;20409;-57
2023/06/05 07:37:23;;;;;;;8.75;5.88;;;15.20;99.90;;;;;;5051278;28;20114;-58
2023/06/05 07:39:51;;;;;;;7.65;4.93;;;15.30;99.90;;;;;;5052337;28;20043;-57
2023/06/05 07:42:16;;;;;;;9.88;5.15;;;15.30;99.90;;;;;;5043395;28;20388;-56
2023/06/05 07:44:42;;;;;;;6.97;4.70;;;15.40;99.90;;;;;;5036416;28;20045;-58
2023/06/05 07:47:08;;;;;;;10.35;4.80;;;15.40;99.90;;;;;;5041876;28;20523;-58
2023/06/05 07:49:33;;;;;;;6.57;4.60;;;15.60;99.90;;;;;;5035376;28;20045;-58
2023/06/05 07:51:59;;;;;;;8.00;4.93;;;15.60;99.90;;;;;;5046376;28;20083;-58
2023/06/05 07:54:25;;;;;;;9.88;5.75;;;15.70;99.90;;;;;;5052088;28;20438;-58
2023/06/05 07:56:51;;;;;;;6.43;4.32;;;15.80;99.90;;;;;;5043455;28;20040;-58
2023/06/05 07:59:22;;;;;;;5.60;4.93;;;15.80;99.90;;;;;;5030612;28;20047;-55
2023/06/05 08:01:49;;;;;;;4.95;4.20;;;15.90;99.90;;;;;;5036318;28;20391;-57
2023/06/05 08:04:15;;;;;;;4.32;3.75;;;16.00;99.90;;;;;;5047154;28;20080;-58
2023/06/05 08:06:41;;;;;;;4.38;3.97;;;16.10;99.90;;;;;;5035522;28;20456;-58
2023/06/05 08:09:09;;;;;;;6.75;4.05;;;16.10;99.90;;;;;;5040127;28;20036;-58
2023/06/05 08:11:38;;;;;;;6.57;3.92;;;16.20;99.90;;;;;;5051807;28;20095;-57
2023/06/05 08:14:07;;;;;;;7.18;4.40;;;16.20;99.90;;;;;;5044784;28;20119;-58
2023/06/05 08:16:34;;;;;;;6.88;3.67;;;16.30;99.90;;;;;;5041338;28;20044;-58
2023/06/05 08:19:01;;;;;;;7.53;4.43;;;16.40;99.90;;;;;;5042833;28;20045;-57
2023/06/05 08:21:26;;;;;;;8.38;4.10;;;16.50;99.90;;;;;;5044093;28;20041;-58
2023/06/05 08:23:52;;;;;;;4.30;3.30;;;16.50;99.90;;;;;;5049334;28;20044;-57
2023/06/05 08:26:21;;;;;;;6.15;3.92;;;16.60;99.90;;;;;;5046488;28;20041;-59
2023/06/05 08:28:47;;;;;;;11.32;4.25;;;16.70;99.90;;;;;;5038175;28;20037;-59
2023/06/05 08:31:13;;;;;;;22.35;4.85;;;16.70;99.90;;;;;;5030887;28;20175;-56
2023/06/05 08:33:41;;;;;;;6.43;3.63;;;16.80;99.90;;;;;;5037923;28;20508;-58
2023/06/05 08:36:06;;;;;;;5.68;3.95;;;16.80;99.90;;;;;;5051146;28;20568;-57
2023/06/05 08:38:33;;;;;;;11.77;4.93;;;16.90;99.90;;;;;;5049210;28;20045;-59
2023/06/05 08:41:07;;;;;;;11.02;3.85;;;17.00;99.90;;;;;;5050911;28;20072;-57
2023/06/05 08:43:36;;;;;;;8.20;4.32;;;17.00;99.90;;;;;;5049135;28;20040;-56
2023/06/05 08:46:02;;;;;;;7.30;4.05;;;17.10;99.90;;;;;;5050748;28;20524;-56
2023/06/05 08:48:30;;;;;;;;;;;17.10;99.90;;;;;;5049568;28;20040;-56
2023/06/05 08:50:58;;;;;;;6.80;3.90;;;17.20;99.90;;;;;;5050970;28;20338;-54
2023/06/05 08:53:26;;;;;;;8.93;3.67;;;17.30;99.90;;;;;;5049343;28;20040;-54
2023/06/05 08:55:55;;;;;;;5.68;3.30;;;17.30;99.90;;;;;;5038692;28;20056;-56
2023/06/05 08:58:21;;;;;;;7.35;4.88;;;17.40;99.90;;;;;;5048061;28;20083;-56
2023/06/05 09:00:48;;;;;;;;;;;17.40;99.90;;;;;;5041677;28;20506;-55
2023/06/05 09:03:20;;;;;;;8.60;3.85;;;17.40;99.90;;;;;;5039419;28;19920;-53
2023/06/05 09:05:48;;;;;;;8.50;3.63;;;17.40;99.90;;;;;;5047642;28;20032;-56
2023/06/05 09:08:16;;;;;;;5.88;4.30;;;17.50;99.90;;;;;;5038423;28;20121;-54
2023/06/05 09:10:42;;;;;;;5.43;3.95;;;17.60;99.90;;;;;;5050414;28;20041;-56
2023/06/05 09:13:09;;;;;;;5.57;4.50;;;17.70;99.90;;;;;;5046014;28;20132;-57
2023/06/05 09:15:35;;;;;;;9.20;4.20;;;17.70;99.90;;;;;;5034524;28;20041;-56
2023/06/05 09:18:10;;;;;;;7.18;4.20;;;17.70;99.90;;;;;;5032281;28;20120;-54
2023/06/05 09:20:39;;;;;;;8.37;4.00;;;17.80;99.90;;;;;;5046789;28;20491;-56
2023/06/05 09:23:26;;;;;;;9.43;4.75;;;17.90;99.90;;;;;;5048686;28;20520;-54
2023/06/05 09:25:52;;;;;;;5.82;3.78;;;17.90;99.90;;;;;;5048060;28;20585;-53
2023/06/05 09:28:18;;;;;;;;;;;18.00;99.90;;;;;;5049870;28;20029;-54
2023/06/05 09:30:58;;;;;;;4.53;3.22;;;18.10;99.90;;;;;;5032289;28;20444;-54
2023/06/05 09:33:25;;;;;;;9.65;4.28;;;18.20;99.90;;;;;;5030343;28;20050;-54
2023/06/05 09:36:05;;;;;;;14.80;4.53;;;18.30;99.90;;;;;;5046062;28;20436;-55
2023/06/05 09:38:31;;;;;;;5.32;4.13;;;18.40;99.90;;;;;;5050028;28;20045;-54
2023/06/05 09:41:15;;;;;;;6.90;3.33;;;18.40;99.90;;;;;;5036688;28;20033;-56
2023/06/05 09:43:41;;;;;;;5.10;3.80;;;18.50;99.80;;;;;;5050183;28;20429;-56
2023/06/05 09:46:10;;;;;;;4.97;3.88;;;18.50;99.90;;;;;;5036117;28;20041;-53
2023/06/05 09:48:37;;;;;;;5.53;4.55;;;18.60;99.90;;;;;;5049923;28;20095;-54
2023/06/05 09:51:11;;;;;;;5.65;3.95;;;18.70;99.70;;;;;;5036518;28;20037;-54
2023/06/05 09:53:45;;;;;;;3.88;3.20;;;18.70;99.80;;;;;;5049443;28;20040;-58
2023/06/05 09:56:13;;;;;;;7.47;4.13;;;18.80;99.80;;;;;;5048085;28;20119;-58
2023/06/05 09:58:48;;;;;;;9.50;4.10;;;18.80;99.90;;;;;;5049445;28;20116;-59
2023/06/05 10:01:24;;;;;;;4.15;3.40;;;18.90;99.50;;;;;;5032031;28;20053;-63
2023/06/05 10:04:10;;;;;;;6.13;3.92;;;18.90;99.40;;;;;;5013473;28;20048;-60
2023/06/05 10:06:36;;;;;;;6.10;4.55;;;19.00;99.60;;;;;;5048435;28;20037;-59
2023/06/05 10:09:02;;;;;;;12.70;4.38;;;19.10;99.70;;;;;;5042571;28;20116;-59
2023/06/05 10:11:28;;;;;;;5.28;3.95;;;19.20;99.20;;;;;;5036576;28;20037;-60
2023/06/05 10:13:58;;;;;;;9.13;3.85;;;19.20;99.20;;;;;;5037830;28;20098;-59
2023/06/05 10:16:27;;;;;;;8.77;4.20;;;19.30;99.00;;;;;;5036513;28;20124;-59
2023/06/05 10:18:55;;;;;;;5.97;2.97;;;19.30;98.80;;;;;;5037180;28;20510;-59
2023/06/05 10:21:21;;;;;;;6.72;3.42;;;19.40;98.70;;;;;;5048036;28;20041;-58
2023/06/05 10:24:11;;;;;;;5.28;3.65;;;19.40;98.60;;;;;;5046842;28;20498;-58
2023/06/05 10:27:11;;;;;;;8.70;3.80;;;19.50;98.10;;;;;;5050688;28;20540;-56
2023/06/05 10:30:24;;;;;;;8.70;4.05;;;19.60;98.10;;;;;;5051798;28;20041;-59
2023/06/05 10:33:17;;;;;;;8.35;4.13;;;19.70;98.20;;;;;;5035021;28;20049;-59
2023/06/05 10:36:09;;;;;;;10.55;5.15;;;19.80;98.40;;;;;;5053754;28;20106;-58
2023/06/05 10:38:37;;;;;;;12.25;4.15;;;19.80;98.10;;;;;;5019186;28;20049;-57
2023/06/05 10:41:04;;;;;;;13.50;6.03;;;19.90;98.30;;;;;;5033886;28;20045;-57
2023/06/05 10:43:44;;;;;;;20.98;5.18;;;19.90;97.60;;;;;;5037132;28;20594;-58
2023/06/05 10:46:31;;;;;;;4.50;3.08;;;20.00;97.70;;;;;;5031797;28;20132;-56
2023/06/05 10:49:19;;;;;;;8.10;2.80;;;20.10;97.50;;;;;;5034384;28;20037;-53
2023/06/05 10:51:53;;;;;;;31.20;8.70;;;20.20;97.10;;;;;;5033285;28;20065;-54
2023/06/05 10:54:22;;;;;;;13.18;5.25;;;20.20;97.10;;;;;;5034608;28;20038;-55
2023/06/05 10:57:05;;;;;;;6.63;3.22;;;20.30;96.70;;;;;;5038152;28;20037;-56
2023/06/05 10:59:39;;;;;;;4.53;2.55;;;20.40;96.90;;;;;;5045481;28;20033;-58
2023/06/05 11:02:05;;;;;;;6.75;3.20;;;20.40;96.70;;;;;;5039694;28;20048;-57
2023/06/05 11:04:46;;;;;;;;;;;20.40;96.60;;;;;;5049248;28;20076;-54
2023/06/05 11:07:18;;;;;;;9.13;3.83;;;20.40;96.60;;;;;;5031046;28;19917;-53
2023/06/05 11:10:02;;;;;;;12.40;3.58;;;20.50;96.20;;;;;;5043953;28;20049;-56
2023/06/05 11:12:40;;;;;;;13.68;3.00;;;20.50;95.90;;;;;;5050430;28;20585;-53
2023/06/05 11:15:07;;;;;;;5.45;2.90;;;20.60;95.70;;;;;;5049643;28;20044;-53
2023/06/05 11:17:38;;;;;;;5.82;2.95;;;20.60;96.00;;;;;;5045294;28;20510;-55
2023/06/05 11:20:28;;;;;;;6.18;2.75;;;20.70;95.70;;;;;;5039909;28;20056;-55
2023/06/05 11:22:54;;;;;;;3.38;2.40;;;20.70;95.60;;;;;;5033914;28;20099;-56
2023/06/05 11:25:31;;;;;;;;;;;20.80;96.30;;;;;;5053099;28;20040;-57
2023/06/05 11:27:59;;;;;;;2.95;2.17;;;20.90;95.90;;;;;;5045112;28;19916;-56
2023/06/05 11:30:28;;;;;;;6.97;2.58;;;21.00;95.80;;;;;;5037194;28;20037;-55
2023/06/05 11:32:58;;;;;;;3.80;2.75;;;21.00;95.50;;;;;;5033607;28;20336;-56
2023/06/05 11:35:28;;;;;;;3.92;2.13;;;21.00;95.20;;;;;;5043710;28;20056;-57
2023/06/05 11:38:09;;;;;;;12.10;2.70;;;21.10;95.00;;;;;;5031922;28;20045;-57
2023/06/05 11:40:35;;;;;;;6.18;2.38;;;21.20;95.30;;;;;;5050376;28;20051;-55
2023/06/05 11:43:07;;;;;;;3.00;1.90;;;21.20;95.00;;;;;;5052065;28;20040;-56
2023/06/05 11:45:35;;;;;;;3.92;2.20;;;21.30;95.20;;;;;;5052034;28;20041;-54
2023/06/05 11:48:13;;;;;;;3.97;2.00;;;21.40;95.00;;;;;;5051757;28;20116;-53
2023/06/05 11:50:55;;;;;;;4.35;1.90;;;21.50;94.70;;;;;;5051966;28;20106;-55
2023/06/05 11:53:22;;;;;;;5.10;2.30;;;21.50;94.20;;;;;;5031696;28;20042;-55
2023/06/05 11:58:29;;;;;;;3.15;1.65;;;21.60;93.70;;;;;;5051805;28;20041;-55
2023/06/05 12:01:21;;;;;;;2.85;2.00;;;21.60;93.60;;;;;;5051964;28;20150;-55
2023/06/05 12:03:48;;;;;;;3.65;1.90;;;21.60;93.30;;;;;;5047454;28;20036;-54
2023/06/05 12:06:15;;;;;;;3.58;1.95;;;21.70;93.40;;;;;;5043641;28;20048;-54
2023/06/05 12:08:42;;;;;;;5.95;2.47;;;21.70;93.50;;;;;;5038488;28;20056;-53
2023/06/05 12:11:25;;;;;;;3.08;1.55;;;21.70;93.60;;;;;;5033180;28;20037;-54
2023/06/05 12:13:57;;;;;;;4.50;2.33;;;21.80;92.80;;;;;;5036663;28;20132;-56
2023/06/05 12:16:45;;;;;;;23.35;3.92;;;21.80;92.90;;;;;;5033951;28;20084;-56
2023/06/05 12:19:16;;;;;;;5.75;1.73;;;21.80;92.60;;;;;;5031519;28;20039;-57
2023/06/05 12:21:43;;;;;;;6.72;2.42;;;21.90;93.20;;;;;;5031401;28;20040;-55
2023/06/05 12:24:09;;;;;;;3.58;1.50;;;21.90;93.10;;;;;;5031699;28;20033;-57
2023/06/05 12:26:53;;;;;;;;;;;22.00;93.20;;;;;;5031125;28;20331;-56
2023/06/05 12:29:20;;;;;;;6.72;1.90;;;22.10;92.70;;;;;;5031306;28;19921;-56
2023/06/05 12:31:46;;;;;;;6.28;2.00;;;22.10;92.70;;;;;;5047409;28;20120;-54
2023/06/05 12:34:12;;;;;;;;;;;22.10;92.70;;;;;;5031616;28;20542;-58
2023/06/05 12:36:40;;;;;;;3.38;1.80;;;22.20;92.70;;;;;;5030526;28;20386;-55
2023/06/05 12:39:06;;;;;;;4.47;2.90;;;22.20;92.40;;;;;;5030514;28;20037;-55
2023/06/05 12:41:32;;;;;;;;;;;22.20;92.40;;;;;;5031542;28;20388;-56
2023/06/05 12:44:00;;;;;;;3.22;1.08;;;22.20;92.10;;;;;;5030176;28;20285;-57
2023/06/05 12:46:25;;;;;;;3.38;1.30;;;22.20;92.10;;;;;;5033232;28;20121;-54
2023/06/05 12:48:51;;;;;;;;;;;22.30;92.30;;;;;;5044495;28;20120;-56
2023/06/05 12:51:17;;;;;;;4.75;1.33;;;22.40;91.60;;;;;;5050469;28;19922;-56
2023/06/05 12:53:42;;;;;;;;;;;22.50;92.10;;;;;;5031026;28;20386;-54
2023/06/05 12:56:08;;;;;;;3.17;1.42;;;22.50;91.90;;;;;;5030986;28;19924;-57
2023/06/05 12:58:34;;;;;;;2.38;1.25;;;22.60;92.00;;;;;;5030448;28;20045;-54